Terminal Aerodrome Forecast
Issued by NWS Sioux Falls, SD

Home | Current Version | Previous Version | Text Only | Print | Product List | Glossary On
Versions: 1 2 3 4 5 6 7 8 9 10 11 12 13 14 15 16 17 18
000
FTUS43 KFSD 241738
TAFHON
TAF
KHON 241738Z 2418/2518 15015G22KT 4SM HZ OVC009
      TEMPO 2418/2420 6SM HZ BKN012
     FM242000 16012G19KT P6SM BKN020
     FM242300 16009KT P6SM SCT030
     FM250900 30014KT P6SM BKN030
     FM251500 31020G28KT P6SM BKN035=

USA.gov is the U.S. government's official web portal to all federal, state and local government web resources and services.